Terminal Aerodrome Forecast
Issued by NWS

Home | Current Version | Previous Version | Text Only | Print | Product List | Glossary On
Versions: 1 2 3 4 5 6 7 8 9 10 11 12 13 14 15 16 17 18
000
FTUS46 KMFR 011720
TAFRBG
TAF
KRBG 011720Z 0118/0218 VRB03KT P6SM VCSH OVC050
     FM012100 18008KT P6SM VCSH BKN050
     FM020300 VRB03KT P6SM -RA OVC025
     FM021600 VRB03KT P6SM -SHRA OVC020=

USA.gov is the U.S. government's official web portal to all federal, state and local government web resources and services.